Fs Philippine — FMDU — position and weather

sailwx.info

Track history (hours):
 
Tides and Currents Weather Stations Pressure Air Temp Water Temp Dewpoint Dewpoint Depression Visibility Wind Speed Wind Dir Waves Ship Positions

Fs Philippine

Last reported at 2014-Jul-18 14:17 UTC. Time now 2014-Jul-23 16:03 UTC.
Position N 36°27' E 023°16'.

Length 139 m; draft 8.8 m.

Type: Ship. MMSI: 228320800.

Date/timePositionNaut miles runAvg speedWind from/ knotsBaromVisibWave heightAir tempDewpointWater temp
2014-Jul-18 14:17N 36°27' E 023°16'2212.6
2014-Jul-18 12:33N 36°46' E 023°29'1412.5
2014-Jul-18 11:27N 36°59' E 023°36'1112.7
2014-Jul-18 10:33N 37°10' E 023°38'1512.8
2014-Jul-18 09:25N 37°25' E 023°40'1412.8
2014-Jul-18 08:21N 37°38' E 023°43'1113.4
2014-Jul-18 07:33N 37°48' E 023°38'1010.1
2014-Jul-18 06:33N 37°57' E 023°33'4 0.4
2014-Jul-17 20:16N 38°01' E 023°31'0 0.1
2014-Jul-17 19:31N 38°01' E 023°31'1 0.9
2014-Jul-17 18:33N 38°02' E 023°31'0 0.0
2014-Jul-17 17:33N 38°02' E 023°31'0 0.0
2014-Jul-17 16:33N 38°02' E 023°31'0 0.0
2014-Jul-17 15:34N 38°02' E 023°31'0 0.0
2014-Jul-17 14:33N 38°02' E 023°31'0 0.0
2014-Jul-17 13:33N 38°02' E 023°31'0 0.0
2014-Jul-17 12:33N 38°02' E 023°31'0 0.0
2014-Jul-17 11:33N 38°02' E 023°31'0 0.0
2014-Jul-17 10:34N 38°02' E 023°31'0 0.0
2014-Jul-17 09:34N 38°02' E 023°31'0 0.0
2014-Jul-17 08:33N 38°02' E 023°31'0 0.0
2014-Jul-17 07:34N 38°02' E 023°31'0 0.0
2014-Jul-17 06:33N 38°02' E 023°31'0 0.0
2014-Jul-17 05:34N 38°02' E 023°31'0 0.0
2014-Jul-17 04:34N 38°02' E 023°31'0 0.0
2014-Jul-17 03:33N 38°02' E 023°31'0 0.0
2014-Jul-17 02:33N 38°02' E 023°31'0 0.0
2014-Jul-17 01:34N 38°02' E 023°31'0 0.0
2014-Jul-17 00:33N 38°02' E 023°31'0 0.0
2014-Jul-16 23:33N 38°02' E 023°31'0 0.0
2014-Jul-16 22:33N 38°02' E 023°31'0 0.0
2014-Jul-16 21:33N 38°02' E 023°31'0 0.0
2014-Jul-16 20:32N 38°02' E 023°31'0 0.0
2014-Jul-16 19:33N 38°02' E 023°31'0 0.0
2014-Jul-16 18:34N 38°02' E 023°31'0 0.0
2014-Jul-16 17:33N 38°02' E 023°31'0 0.2
2014-Jul-16 16:33N 38°02' E 023°31'1 1.1
2014-Jul-16 15:33N 38°01' E 023°32'0 0.0
2014-Jul-16 14:33N 38°01' E 023°32'0 0.1
2014-Jul-16 13:15N 38°01' E 023°32'0 0.0
2014-Jul-16 07:18N 38°01' E 023°32'0 0.0
2014-Jul-16 06:24N 38°01' E 023°32'2 2.2
2014-Jul-16 05:32N 37°59' E 023°33'7 6.9
2014-Jul-16 04:34N 37°53' E 023°33'0 0.1
2014-Jul-16 03:32N 37°52' E 023°33'0 0.0
2014-Jul-16 02:32N 37°52' E 023°33'0 0.0
2014-Jul-16 01:32N 37°52' E 023°33'0 0.1
2014-Jul-16 00:32N 37°53' E 023°33'9 9.3
2014-Jul-15 23:33N 37°46' E 023°42'1212.2
2014-Jul-15 22:33N 37°34' E 023°45'  
2014-Jul-09 20:32N 35°45' E 014°53'1313.5
2014-Jul-09 19:33N 35°48' E 014°37'4 3.6
2014-Jul-09 18:32N 35°49' E 014°33'0 0.0
2014-Jul-09 17:33N 35°49' E 014°33'0 0.0
2014-Jul-09 16:33N 35°49' E 014°33'0 0.0
2014-Jul-09 15:33N 35°49' E 014°33'0 0.0
2014-Jul-09 14:33N 35°49' E 014°33'0 0.0
2014-Jul-09 13:33N 35°49' E 014°33'0 0.0
2014-Jul-09 12:33N 35°49' E 014°33'0 0.0
2014-Jul-09 11:33N 35°49' E 014°33'0 0.0
2014-Jul-09 10:33N 35°49' E 014°33'0 0.0
2014-Jul-09 09:33N 35°49' E 014°33'0 0.0
2014-Jul-09 08:32N 35°49' E 014°33'0 0.0
2014-Jul-09 07:33N 35°49' E 014°33'0 0.0
2014-Jul-09 06:33N 35°49' E 014°33'0 0.0
2014-Jul-09 05:33N 35°49' E 014°33'0 0.0
2014-Jul-09 04:33N 35°49' E 014°33'0 0.0
2014-Jul-09 03:33N 35°49' E 014°33'0 0.0
2014-Jul-09 01:33N 35°49' E 014°33'0 0.0
2014-Jul-09 00:33N 35°49' E 014°33'0 0.0
2014-Jul-08 23:33N 35°49' E 014°33'0 0.0
2014-Jul-08 22:33N 35°49' E 014°33'0 0.0
2014-Jul-08 21:33N 35°49' E 014°33'0 0.0
2014-Jul-08 20:33N 35°49' E 014°33'0 0.0
2014-Jul-08 19:33N 35°49' E 014°33'0 0.0
2014-Jul-08 18:33N 35°49' E 014°33'0 0.0
2014-Jul-08 17:33N 35°49' E 014°33'0 0.0
2014-Jul-08 16:33N 35°49' E 014°33'0 0.0
2014-Jul-08 15:33N 35°49' E 014°33'0 0.0
2014-Jul-08 14:33N 35°49' E 014°33'  
Track history (hours):
 
Tides and Currents Weather Stations Pressure Air Temp Water Temp Dewpoint Dewpoint Depression Visibility Wind Speed Wind Dir Waves Ship Positions

Fs Philippine

Last reported at 2014-Jul-18 14:17 UTC. Time now 2014-Jul-23 16:03 UTC.
Position N 36°27' E 023°16'.

Length 139 m; draft 8.8 m.

Type: Ship. MMSI: 228320800.

Date/timePositionNaut miles runAvg speedWind from/ knotsBaromVisibWave heightAir tempDewpointWater temp
2014-Jul-18 14:17N 36°27' E 023°16'2212.6
2014-Jul-18 12:33N 36°46' E 023°29'1412.5
2014-Jul-18 11:27N 36°59' E 023°36'1112.7
2014-Jul-18 10:33N 37°10' E 023°38'1512.8
2014-Jul-18 09:25N 37°25' E 023°40'1412.8
2014-Jul-18 08:21N 37°38' E 023°43'1113.4
2014-Jul-18 07:33N 37°48' E 023°38'1010.1
2014-Jul-18 06:33N 37°57' E 023°33'4 0.4
2014-Jul-17 20:16N 38°01' E 023°31'0 0.1
2014-Jul-17 19:31N 38°01' E 023°31'1 0.9
2014-Jul-17 18:33N 38°02' E 023°31'0 0.0
2014-Jul-17 17:33N 38°02' E 023°31'0 0.0
2014-Jul-17 16:33N 38°02' E 023°31'0 0.0
2014-Jul-17 15:34N 38°02' E 023°31'0 0.0
2014-Jul-17 14:33N 38°02' E 023°31'0 0.0
2014-Jul-17 13:33N 38°02' E 023°31'0 0.0
2014-Jul-17 12:33N 38°02' E 023°31'0 0.0
2014-Jul-17 11:33N 38°02' E 023°31'0 0.0
2014-Jul-17 10:34N 38°02' E 023°31'0 0.0
2014-Jul-17 09:34N 38°02' E 023°31'0 0.0
2014-Jul-17 08:33N 38°02' E 023°31'0 0.0
2014-Jul-17 07:34N 38°02' E 023°31'0 0.0
2014-Jul-17 06:33N 38°02' E 023°31'0 0.0
2014-Jul-17 05:34N 38°02' E 023°31'0 0.0
2014-Jul-17 04:34N 38°02' E 023°31'0 0.0
2014-Jul-17 03:33N 38°02' E 023°31'0 0.0
2014-Jul-17 02:33N 38°02' E 023°31'0 0.0
2014-Jul-17 01:34N 38°02' E 023°31'0 0.0
2014-Jul-17 00:33N 38°02' E 023°31'0 0.0
2014-Jul-16 23:33N 38°02' E 023°31'0 0.0
2014-Jul-16 22:33N 38°02' E 023°31'0 0.0
2014-Jul-16 21:33N 38°02' E 023°31'0 0.0
2014-Jul-16 20:32N 38°02' E 023°31'0 0.0
2014-Jul-16 19:33N 38°02' E 023°31'0 0.0
2014-Jul-16 18:34N 38°02' E 023°31'0 0.0
2014-Jul-16 17:33N 38°02' E 023°31'0 0.2
2014-Jul-16 16:33N 38°02' E 023°31'1 1.1
2014-Jul-16 15:33N 38°01' E 023°32'0 0.0
2014-Jul-16 14:33N 38°01' E 023°32'0 0.1
2014-Jul-16 13:15N 38°01' E 023°32'0 0.0
2014-Jul-16 07:18N 38°01' E 023°32'0 0.0
2014-Jul-16 06:24N 38°01' E 023°32'2 2.2
2014-Jul-16 05:32N 37°59' E 023°33'7 6.9
2014-Jul-16 04:34N 37°53' E 023°33'0 0.1
2014-Jul-16 03:32N 37°52' E 023°33'0 0.0
2014-Jul-16 02:32N 37°52' E 023°33'0 0.0
2014-Jul-16 01:32N 37°52' E 023°33'0 0.1
2014-Jul-16 00:32N 37°53' E 023°33'9 9.3
2014-Jul-15 23:33N 37°46' E 023°42'1212.2
2014-Jul-15 22:33N 37°34' E 023°45'  
2014-Jul-09 20:32N 35°45' E 014°53'1313.5
2014-Jul-09 19:33N 35°48' E 014°37'4 3.6
2014-Jul-09 18:32N 35°49' E 014°33'0 0.0
2014-Jul-09 17:33N 35°49' E 014°33'0 0.0
2014-Jul-09 16:33N 35°49' E 014°33'0 0.0
2014-Jul-09 15:33N 35°49' E 014°33'0 0.0
2014-Jul-09 14:33N 35°49' E 014°33'0 0.0
2014-Jul-09 13:33N 35°49' E 014°33'0 0.0
2014-Jul-09 12:33N 35°49' E 014°33'0 0.0
2014-Jul-09 11:33N 35°49' E 014°33'0 0.0
2014-Jul-09 10:33N 35°49' E 014°33'0 0.0
2014-Jul-09 09:33N 35°49' E 014°33'0 0.0
2014-Jul-09 08:32N 35°49' E 014°33'0 0.0
2014-Jul-09 07:33N 35°49' E 014°33'0 0.0
2014-Jul-09 06:33N 35°49' E 014°33'0 0.0
2014-Jul-09 05:33N 35°49' E 014°33'0 0.0
2014-Jul-09 04:33N 35°49' E 014°33'0 0.0
2014-Jul-09 03:33N 35°49' E 014°33'0 0.0
2014-Jul-09 01:33N 35°49' E 014°33'0 0.0
2014-Jul-09 00:33N 35°49' E 014°33'0 0.0
2014-Jul-08 23:33N 35°49' E 014°33'0 0.0
2014-Jul-08 22:33N 35°49' E 014°33'0 0.0
2014-Jul-08 21:33N 35°49' E 014°33'0 0.0
2014-Jul-08 20:33N 35°49' E 014°33'0 0.0
2014-Jul-08 19:33N 35°49' E 014°33'0 0.0
2014-Jul-08 18:33N 35°49' E 014°33'0 0.0
2014-Jul-08 17:33N 35°49' E 014°33'0 0.0
2014-Jul-08 16:33N 35°49' E 014°33'0 0.0
2014-Jul-08 15:33N 35°49' E 014°33'0 0.0
2014-Jul-08 14:33N 35°49' E 014°33'  

Dump ship's entire track history